createdAt,value
2022-11-30T00:01:15.843Z,38.47
2022-11-30T00:03:43.500Z,37.60
2022-11-30T00:06:12.108Z,35.30
2022-11-30T00:08:39.617Z,36.03
2022-11-30T00:11:14.444Z,34.37
2022-11-30T00:13:42.179Z,35.40
2022-11-30T00:16:10.047Z,34.93
2022-11-30T00:18:38.139Z,40.60
2022-11-30T00:21:07.007Z,35.50
2022-11-30T00:23:35.319Z,39.87
2022-11-30T00:26:03.392Z,34.03
2022-11-30T00:28:32.129Z,39.07
2022-11-30T00:31:03.564Z,38.90
2022-11-30T00:33:33.416Z,37.43
2022-11-30T00:36:01.889Z,40.40
2022-11-30T00:38:29.625Z,41.97
2022-11-30T00:40:57.108Z,39.53
2022-11-30T00:43:24.603Z,37.47
2022-11-30T00:45:52.123Z,36.00
2022-11-30T00:48:19.624Z,41.17
2022-11-30T00:50:48.441Z,37.40
2022-11-30T00:53:16.044Z,37.27
2022-11-30T00:55:44.129Z,38.33
2022-11-30T00:58:11.729Z,39.93
2022-11-30T01:00:39.431Z,38.27
2022-11-30T01:03:06.887Z,38.47
2022-11-30T01:05:35.003Z,38.17
2022-11-30T01:08:06.536Z,42.93
2022-11-30T01:10:34.449Z,38.77
2022-11-30T01:13:02.084Z,40.93
2022-11-30T01:15:29.727Z,41.50
2022-11-30T01:17:59.291Z,42.93
2022-11-30T01:20:26.784Z,38.87
2022-11-30T01:22:55.577Z,39.80
2022-11-30T01:25:23.338Z,43.63
2022-11-30T01:27:51.292Z,44.17
2022-11-30T01:30:19.157Z,44.43
2022-11-30T01:32:46.857Z,45.60
2022-11-30T01:35:14.349Z,41.43
2022-11-30T01:37:41.814Z,44.90
2022-11-30T01:40:09.718Z,46.10
2022-11-30T01:42:37.160Z,41.47
2022-11-30T01:45:05.351Z,39.90
2022-11-30T01:47:32.832Z,39.20
2022-11-30T01:50:09.392Z,44.97
2022-11-30T01:52:38.747Z,41.27
2022-11-30T01:55:09.159Z,39.07
2022-11-30T01:57:37.770Z,41.93
2022-11-30T02:00:07.301Z,41.63
2022-11-30T02:02:40.701Z,41.07
2022-11-30T02:05:08.189Z,42.47
2022-11-30T02:07:35.876Z,41.43
2022-11-30T02:10:03.391Z,40.23
2022-11-30T02:12:40.302Z,42.80
2022-11-30T02:15:15.079Z,42.67
2022-11-30T02:17:45.758Z,40.93
2022-11-30T02:20:22.321Z,42.30
2022-11-30T02:23:15.817Z,39.07
2022-11-30T02:26:09.444Z,43.40
2022-11-30T02:28:52.484Z,39.53
2022-11-30T02:31:22.367Z,29.43
2022-11-30T02:33:50.561Z,33.30
2022-11-30T02:36:18.704Z,30.53
2022-11-30T02:38:46.749Z,29.40
2022-11-30T02:41:14.160Z,25.90
2022-11-30T02:43:41.737Z,24.30
2022-11-30T02:46:09.227Z,22.70
2022-11-30T02:48:36.613Z,22.93
2022-11-30T02:51:05.307Z,22.23
2022-11-30T02:53:32.856Z,20.07
2022-11-30T02:56:00.308Z,20.97
2022-11-30T02:58:27.820Z,24.60
2022-11-30T03:00:55.317Z,23.63
2022-11-30T03:03:22.833Z,23.40
2022-11-30T03:05:50.260Z,25.23
2022-11-30T03:08:17.736Z,28.17
2022-11-30T03:10:45.159Z,23.50
2022-11-30T03:13:12.634Z,27.33
2022-11-30T03:15:40.099Z,28.43
2022-11-30T03:18:07.568Z,22.40
2022-11-30T03:20:35.001Z,28.17
2022-11-30T03:23:02.657Z,28.60
2022-11-30T03:25:30.404Z,26.37
2022-11-30T03:27:57.830Z,31.93
2022-11-30T03:30:25.257Z,27.87
2022-11-30T03:32:52.689Z,28.07
2022-11-30T03:35:20.156Z,26.67
2022-11-30T03:37:47.905Z,27.17
2022-11-30T03:40:15.451Z,26.27
2022-11-30T03:42:42.950Z,23.47
2022-11-30T03:45:10.551Z,24.63
2022-11-30T03:47:38.176Z,28.10
2022-11-30T03:50:05.948Z,26.37
2022-11-30T03:52:33.387Z,27.73
2022-11-30T03:55:00.820Z,27.50
2022-11-30T03:57:28.247Z,26.43
2022-11-30T03:59:55.704Z,28.17
2022-11-30T04:02:23.179Z,29.73
2022-11-30T04:04:50.640Z,27.13
2022-11-30T04:07:18.098Z,26.77
2022-11-30T04:09:45.625Z,26.73
2022-11-30T04:12:13.053Z,25.43
2022-11-30T04:14:40.455Z,26.53
2022-11-30T04:17:07.848Z,26.17
2022-11-30T04:19:35.256Z,26.23
2022-11-30T04:22:02.703Z,27.17
2022-11-30T04:24:30.170Z,25.30
2022-11-30T04:26:57.603Z,26.70
2022-11-30T04:29:25.026Z,25.07
2022-11-30T04:31:52.443Z,25.67
2022-11-30T04:34:19.871Z,25.77
2022-11-30T04:36:47.324Z,25.57
2022-11-30T04:39:14.759Z,26.73
2022-11-30T04:41:42.229Z,26.30
2022-11-30T04:44:09.862Z,25.37
2022-11-30T04:46:37.551Z,26.47
2022-11-30T04:49:05.059Z,24.40
2022-11-30T04:51:32.537Z,25.37
2022-11-30T04:53:59.927Z,25.70
2022-11-30T04:56:27.370Z,25.33
2022-11-30T04:58:54.855Z,25.47
2022-11-30T05:01:22.331Z,27.33
2022-11-30T05:03:50.311Z,24.97
2022-11-30T05:06:17.776Z,25.63
2022-11-30T05:08:45.180Z,26.07
2022-11-30T05:11:12.672Z,23.80
2022-11-30T05:13:40.165Z,25.37
2022-11-30T05:16:07.733Z,20.07
2022-11-30T05:18:35.189Z,22.83
2022-11-30T05:21:02.785Z,25.40
2022-11-30T05:23:30.220Z,25.40
2022-11-30T05:25:57.660Z,24.90
2022-11-30T05:28:25.069Z,22.83
2022-11-30T05:30:52.483Z,25.13
2022-11-30T05:33:19.925Z,26.07
2022-11-30T05:35:47.360Z,24.47
2022-11-30T05:38:14.792Z,25.37
2022-11-30T05:40:42.280Z,24.93
2022-11-30T05:43:09.745Z,26.17
2022-11-30T05:45:37.177Z,25.43
2022-11-30T05:48:04.662Z,25.13
2022-11-30T05:50:32.121Z,24.43
2022-11-30T05:52:59.548Z,24.90
2022-11-30T05:55:27.599Z,24.70
2022-11-30T05:57:55.262Z,24.97
2022-11-30T06:00:22.783Z,24.57
2022-11-30T06:02:55.583Z,24.50
2022-11-30T06:05:23.120Z,25.10
2022-11-30T06:07:50.626Z,25.57
2022-11-30T06:10:18.200Z,27.13
2022-11-30T06:12:45.640Z,27.63
2022-11-30T06:15:13.086Z,26.13
2022-11-30T06:17:40.527Z,28.23
2022-11-30T06:20:08.503Z,27.57
2022-11-30T06:22:35.944Z,26.43
2022-11-30T06:25:03.424Z,28.33
2022-11-30T06:27:31.645Z,27.70
2022-11-30T06:29:59.052Z,26.87
2022-11-30T06:32:26.477Z,28.47
2022-11-30T06:34:53.895Z,31.20
2022-11-30T06:37:21.305Z,29.93
2022-11-30T06:40:05.931Z,39.55
2022-11-30T06:42:34.225Z,33.80
2022-11-30T06:45:01.655Z,30.20
2022-11-30T06:47:29.131Z,30.37
2022-11-30T06:49:56.588Z,29.00
2022-11-30T06:52:24.306Z,30.17
2022-11-30T06:54:51.842Z,28.53
2022-11-30T06:57:19.286Z,29.03
2022-11-30T06:59:46.762Z,27.77
2022-11-30T07:02:18.136Z,26.63
2022-11-30T07:04:46.551Z,27.17
2022-11-30T07:07:14.641Z,27.27
2022-11-30T07:09:42.124Z,26.30
2022-11-30T07:12:09.544Z,25.07
2022-11-30T07:14:37.065Z,27.27
2022-11-30T07:17:04.534Z,26.53
2022-11-30T07:19:32.775Z,25.23
2022-11-30T07:22:00.240Z,24.63
2022-11-30T07:24:27.697Z,24.83
2022-11-30T07:26:55.125Z,24.93
2022-11-30T07:29:22.611Z,24.73
2022-11-30T07:31:53.612Z,25.70
2022-11-30T07:34:21.259Z,24.63
2022-11-30T07:36:48.837Z,25.50
2022-11-30T07:39:16.355Z,24.33
2022-11-30T07:41:44.175Z,24.63
2022-11-30T07:44:11.765Z,23.80
2022-11-30T07:46:39.473Z,24.73
2022-11-30T07:49:08.160Z,24.60
2022-11-30T07:51:36.070Z,24.07
2022-11-30T07:54:03.660Z,25.30
2022-11-30T07:56:31.115Z,25.07
2022-11-30T07:58:59.759Z,23.70
2022-11-30T08:01:28.671Z,25.33
2022-11-30T08:03:56.550Z,24.47
2022-11-30T08:06:25.805Z,24.73
2022-11-30T08:08:54.234Z,24.63
2022-11-30T08:11:23.550Z,24.33
2022-11-30T08:13:51.135Z,23.73
2022-11-30T08:16:20.465Z,27.00
2022-11-30T08:18:48.192Z,26.13
2022-11-30T08:21:16.923Z,25.83
2022-11-30T08:23:45.937Z,25.43
2022-11-30T08:26:20.810Z,24.10
2022-11-30T08:28:48.961Z,24.83
2022-11-30T08:31:20.483Z,23.50
2022-11-30T08:33:48.261Z,25.53
2022-11-30T08:36:17.420Z,25.70
2022-11-30T08:38:45.527Z,26.27
2022-11-30T08:41:14.235Z,24.63
2022-11-30T08:43:41.924Z,22.33
2022-11-30T08:46:34.616Z,26.10
2022-11-30T08:49:19.766Z,23.80
2022-11-30T08:54:34.536Z,24.20
2022-11-30T08:57:02.012Z,23.23
2022-11-30T08:59:31.408Z,24.50
2022-11-30T09:01:58.888Z,24.03
2022-11-30T09:04:26.418Z,24.40
2022-11-30T09:06:53.885Z,22.00
2022-11-30T09:09:21.383Z,23.17
2022-11-30T09:11:48.847Z,23.80
2022-11-30T09:14:16.400Z,23.47
2022-11-30T09:16:43.841Z,23.70
2022-11-30T09:19:11.355Z,21.17
2022-11-30T09:21:39.002Z,24.00
2022-11-30T09:24:06.590Z,25.03
2022-11-30T09:26:34.064Z,22.03
2022-11-30T09:29:01.500Z,24.47
2022-11-30T09:31:28.957Z,21.67
2022-11-30T09:33:57.153Z,24.40
2022-11-30T09:36:25.409Z,20.77
2022-11-30T09:38:52.909Z,23.97
2022-11-30T09:41:23.345Z,24.93
2022-11-30T09:43:50.789Z,23.10
2022-11-30T09:46:18.343Z,24.60
2022-11-30T09:48:50.653Z,24.70
2022-11-30T09:51:21.090Z,22.87
2022-11-30T09:53:58.955Z,23.03
2022-11-30T09:56:31.295Z,23.63
2022-11-30T09:59:01.998Z,24.73
2022-11-30T10:01:32.786Z,23.77
2022-11-30T10:04:01.106Z,24.63
2022-11-30T10:06:39.526Z,23.60
2022-11-30T10:09:20.108Z,22.73
2022-11-30T10:11:47.590Z,23.93
2022-11-30T10:14:36.863Z,24.97
2022-11-30T10:17:11.980Z,24.83
2022-11-30T10:19:39.497Z,23.40
2022-11-30T10:22:15.626Z,23.00
2022-11-30T10:24:55.279Z,21.87
2022-11-30T10:27:45.771Z,23.90
2022-11-30T10:30:14.301Z,22.83
2022-11-30T10:32:42.420Z,23.93
2022-11-30T10:35:21.674Z,25.87
2022-11-30T10:37:51.063Z,23.30
2022-11-30T10:40:21.587Z,23.90
2022-11-30T10:42:52.582Z,22.67
2022-11-30T10:45:24.116Z,23.63
2022-11-30T10:48:03.857Z,22.13
2022-11-30T10:50:31.610Z,23.23
2022-11-30T10:52:59.827Z,24.77
2022-11-30T10:55:32.225Z,22.73
2022-11-30T10:58:05.887Z,23.77
2022-11-30T11:00:33.349Z,23.80
2022-11-30T11:03:00.850Z,23.20
2022-11-30T11:05:29.448Z,22.67
2022-11-30T11:08:07.140Z,23.50
2022-11-30T11:10:36.374Z,22.33
2022-11-30T11:13:04.436Z,24.07
2022-11-30T11:15:33.293Z,23.80
2022-11-30T11:18:19.569Z,22.47
2022-11-30T11:20:47.077Z,22.97
2022-11-30T11:23:30.887Z,23.37
2022-11-30T11:25:58.528Z,20.73
2022-11-30T11:28:26.265Z,22.97
2022-11-30T11:30:54.716Z,24.17
2022-11-30T11:33:26.275Z,23.80
2022-11-30T11:35:55.150Z,23.47
2022-11-30T11:38:41.063Z,24.40
2022-11-30T11:41:26.905Z,21.80
2022-11-30T11:43:59.296Z,22.53
2022-11-30T11:46:26.922Z,22.10
2022-11-30T11:48:57.155Z,22.17
2022-11-30T11:51:51.053Z,22.67
2022-11-30T11:54:21.635Z,23.73
2022-11-30T11:56:49.908Z,21.80
2022-11-30T11:59:37.488Z,21.07
2022-11-30T12:02:08.122Z,22.60
2022-11-30T12:04:50.871Z,22.13
2022-11-30T12:07:18.489Z,22.47
2022-11-30T12:10:21.952Z,23.27
2022-11-30T12:12:55.356Z,21.20
2022-11-30T12:15:27.224Z,21.57
2022-11-30T12:18:24.546Z,20.17
2022-11-30T12:20:54.866Z,21.30
2022-11-30T12:23:35.152Z,22.23
2022-11-30T12:26:07.457Z,22.27
2022-11-30T12:28:40.101Z,21.73
2022-11-30T12:31:15.384Z,20.43
2022-11-30T12:33:55.548Z,21.97
2022-11-30T12:36:41.367Z,19.30
2022-11-30T12:39:09.596Z,14.27
2022-11-30T12:41:37.040Z,18.67
2022-11-30T12:44:27.968Z,18.73
2022-11-30T12:46:58.359Z,18.47
2022-11-30T12:49:51.054Z,19.33
2022-11-30T12:52:28.404Z,18.80
2022-11-30T12:55:19.156Z,19.70
2022-11-30T12:57:52.956Z,22.40
2022-11-30T13:00:24.539Z,21.93
2022-11-30T13:02:55.060Z,21.90
2022-11-30T13:05:30.462Z,22.83
2022-11-30T13:08:01.159Z,23.60
2022-11-30T13:10:31.678Z,23.60
2022-11-30T13:13:00.801Z,23.20
2022-11-30T13:15:29.917Z,22.30
2022-11-30T13:17:57.533Z,23.07
2022-11-30T13:20:24.974Z,21.70
2022-11-30T13:22:59.396Z,20.47
2022-11-30T13:26:06.374Z,19.10
2022-11-30T13:28:38.971Z,20.93
2022-11-30T13:31:09.349Z,19.90
2022-11-30T13:33:39.701Z,19.80
2022-11-30T13:36:21.665Z,21.30
2022-11-30T13:39:08.543Z,20.30
2022-11-30T13:41:36.567Z,20.00
2022-11-30T13:44:04.137Z,21.37
2022-11-30T13:46:31.670Z,22.07
2022-11-30T13:49:17.227Z,22.57
2022-11-30T13:51:44.791Z,22.07
2022-11-30T13:54:30.818Z,22.37
2022-11-30T13:56:58.327Z,22.30
2022-11-30T13:59:25.748Z,23.53
2022-11-30T14:01:54.048Z,22.47
2022-11-30T14:04:22.793Z,22.00
2022-11-30T14:06:51.304Z,20.37
2022-11-30T14:09:37.680Z,21.17
2022-11-30T14:12:23.962Z,20.73
2022-11-30T14:14:51.444Z,23.33
2022-11-30T14:17:24.504Z,20.70
2022-11-30T14:19:53.148Z,18.90
2022-11-30T14:22:20.593Z,18.63
2022-11-30T14:24:48.822Z,19.00
2022-11-30T14:27:18.395Z,19.57
2022-11-30T14:29:48.393Z,17.47
2022-11-30T14:32:28.760Z,19.17
2022-11-30T14:35:12.170Z,18.70
2022-11-30T14:37:47.179Z,18.47
2022-11-30T14:40:18.523Z,17.57
2022-11-30T14:42:51.210Z,19.87
2022-11-30T14:45:20.675Z,19.03
2022-11-30T14:47:51.310Z,18.90
2022-11-30T14:50:23.474Z,18.33
2022-11-30T14:53:03.196Z,18.67
2022-11-30T14:55:41.159Z,19.53
2022-11-30T14:58:17.541Z,20.73
2022-11-30T15:00:45.784Z,20.63
2022-11-30T15:03:38.887Z,18.87
2022-11-30T15:06:08.486Z,19.20
2022-11-30T15:08:35.929Z,20.00
2022-11-30T15:11:07.811Z,17.90
2022-11-30T15:13:38.437Z,18.57
2022-11-30T15:16:09.701Z,16.87
2022-11-30T15:18:39.590Z,16.90
2022-11-30T15:21:13.532Z,17.20
2022-11-30T15:23:41.065Z,16.70
2022-11-30T15:26:17.233Z,16.93
2022-11-30T15:28:46.588Z,16.80
2022-11-30T15:31:15.517Z,15.87
2022-11-30T15:33:47.783Z,17.17
2022-11-30T15:36:31.873Z,15.53
2022-11-30T15:39:02.630Z,16.43
2022-11-30T15:41:30.164Z,16.17
2022-11-30T15:43:58.020Z,15.90
2022-11-30T15:46:37.741Z,15.47
2022-11-30T15:49:11.715Z,16.60
2022-11-30T15:51:40.749Z,16.03
2022-11-30T15:54:08.257Z,17.53
2022-11-30T15:56:35.729Z,18.37
2022-11-30T15:59:05.905Z,16.83
2022-11-30T16:01:52.158Z,16.93
2022-11-30T16:04:19.606Z,16.93
2022-11-30T16:06:47.979Z,16.87
2022-11-30T16:09:23.792Z,17.37
2022-11-30T16:11:54.049Z,19.13
2022-11-30T16:14:25.107Z,16.27
2022-11-30T16:16:52.634Z,18.87
2022-11-30T16:19:20.674Z,17.07
2022-11-30T16:21:49.403Z,18.77
2022-11-30T16:24:17.007Z,20.23
2022-11-30T16:26:52.250Z,19.00
2022-11-30T16:29:20.532Z,19.83
2022-11-30T16:31:48.103Z,19.00
2022-11-30T16:34:15.653Z,18.97
2022-11-30T16:36:43.086Z,13.33
2022-11-30T16:39:12.354Z,15.97
2022-11-30T16:41:39.847Z,16.50
2022-11-30T16:44:12.196Z,17.23
2022-11-30T16:46:39.677Z,18.73
2022-11-30T16:49:07.142Z,14.90
2022-11-30T16:51:34.648Z,16.97
2022-11-30T16:54:02.328Z,17.70
2022-11-30T16:56:29.827Z,17.47
2022-11-30T16:58:57.274Z,14.50
2022-11-30T17:01:34.767Z,17.43
2022-11-30T17:04:10.559Z,17.47
2022-11-30T17:06:38.218Z,17.43
2022-11-30T17:09:05.689Z,15.83
2022-11-30T17:11:34.173Z,18.03
2022-11-30T17:14:01.623Z,16.03
2022-11-30T17:16:29.195Z,17.70
2022-11-30T17:18:56.733Z,18.00
2022-11-30T17:21:28.713Z,17.10
2022-11-30T17:23:56.274Z,17.50
2022-11-30T17:26:23.729Z,16.90
2022-11-30T17:28:51.315Z,15.70
2022-11-30T17:31:19.197Z,15.30
2022-11-30T17:33:48.581Z,18.80
2022-11-30T17:36:17.019Z,15.57
2022-11-30T17:38:44.491Z,18.70
2022-11-30T17:41:19.983Z,19.13
2022-11-30T17:43:48.450Z,17.43
2022-11-30T17:46:17.428Z,17.73
2022-11-30T17:48:45.182Z,19.10
2022-11-30T17:51:13.112Z,17.93
2022-11-30T17:53:41.216Z,15.73
2022-11-30T17:56:15.591Z,15.63
2022-11-30T17:58:44.656Z,17.73
2022-11-30T18:01:17.199Z,18.27
2022-11-30T18:03:45.134Z,15.67
2022-11-30T18:06:12.888Z,19.00
2022-11-30T18:08:40.386Z,18.73
2022-11-30T18:11:12.004Z,20.63
2022-11-30T18:13:40.017Z,19.20
2022-11-30T18:16:17.960Z,18.50
2022-11-30T18:18:47.985Z,19.57
2022-11-30T18:21:17.219Z,18.37
2022-11-30T18:23:44.692Z,16.50
2022-11-30T18:26:13.876Z,11.63
2022-11-30T18:28:41.559Z,16.13
2022-11-30T18:31:09.159Z,13.03
2022-11-30T18:33:37.220Z,17.97
2022-11-30T18:36:05.726Z,17.00
2022-11-30T18:38:37.511Z,12.50
2022-11-30T18:41:06.581Z,17.40
2022-11-30T18:43:34.754Z,19.53
2022-11-30T18:46:03.374Z,19.23
2022-11-30T18:48:30.868Z,19.33
2022-11-30T18:50:58.897Z,20.90
2022-11-30T18:53:26.429Z,18.30
2022-11-30T18:55:53.897Z,19.27
2022-11-30T18:58:21.351Z,17.20
2022-11-30T19:00:48.822Z,15.53
2022-11-30T19:03:16.227Z,17.63
2022-11-30T19:05:43.665Z,17.40
2022-11-30T19:08:14.951Z,16.73
2022-11-30T19:10:42.542Z,16.73
2022-11-30T19:13:09.981Z,15.47
2022-11-30T19:15:38.648Z,15.57
2022-11-30T19:18:06.197Z,14.97
2022-11-30T19:20:38.208Z,14.80
2022-11-30T19:23:05.733Z,15.43
2022-11-30T19:25:33.174Z,15.57
2022-11-30T19:28:00.664Z,14.53
2022-11-30T19:30:28.125Z,13.27
2022-11-30T19:32:55.880Z,13.20
2022-11-30T19:35:23.316Z,14.30
2022-11-30T19:37:52.374Z,12.27
2022-11-30T19:40:19.871Z,14.40
2022-11-30T19:42:47.377Z,13.90
2022-11-30T19:45:14.813Z,13.00
2022-11-30T19:47:42.316Z,12.13
2022-11-30T19:50:09.831Z,15.50
2022-11-30T19:52:37.267Z,14.33
2022-11-30T19:55:04.916Z,13.27
2022-11-30T19:57:32.422Z,12.47
2022-11-30T19:59:59.940Z,15.33
2022-11-30T20:02:27.489Z,14.50
2022-11-30T20:04:56.114Z,16.17
2022-11-30T20:07:23.620Z,16.13
2022-11-30T20:09:51.098Z,15.93
2022-11-30T20:12:18.540Z,17.30
2022-11-30T20:14:46.439Z,15.23
2022-11-30T20:17:14.288Z,16.47
2022-11-30T20:19:41.734Z,17.63
2022-11-30T20:22:09.201Z,17.10
2022-11-30T20:24:37.112Z,14.03
2022-11-30T20:27:04.796Z,15.17
2022-11-30T20:29:32.309Z,16.17
2022-11-30T20:31:59.781Z,13.90
2022-11-30T20:34:32.681Z,14.60
2022-11-30T20:37:01.775Z,13.93
2022-11-30T20:39:29.230Z,13.67
2022-11-30T20:41:56.690Z,14.00
2022-11-30T20:44:24.209Z,14.17
2022-11-30T20:46:51.724Z,13.17
2022-11-30T20:49:20.410Z,14.53
2022-11-30T20:51:48.817Z,14.37
2022-11-30T20:54:16.838Z,13.73
2022-11-30T20:56:44.446Z,13.03
2022-11-30T20:59:16.294Z,12.20
2022-11-30T21:01:44.907Z,13.40
2022-11-30T21:04:12.442Z,14.77
2022-11-30T21:06:40.043Z,13.07
2022-11-30T21:09:07.545Z,13.60
2022-11-30T21:11:35.169Z,12.00
2022-11-30T21:14:02.738Z,17.80
2022-11-30T21:16:30.250Z,18.00
2022-11-30T21:18:59.453Z,19.77
2022-11-30T21:21:31.482Z,18.90
2022-11-30T21:23:59.734Z,19.17
2022-11-30T21:26:29.016Z,20.50
2022-11-30T21:29:00.581Z,15.47
2022-11-30T21:31:28.264Z,19.00
2022-11-30T21:33:55.732Z,20.43
2022-11-30T21:36:23.908Z,16.60
2022-11-30T21:39:02.626Z,21.67
2022-11-30T21:41:32.455Z,19.83
2022-11-30T21:43:59.966Z,21.90
2022-11-30T21:46:27.520Z,22.80
2022-11-30T21:48:55.056Z,22.13
2022-11-30T21:51:23.629Z,21.60
2022-11-30T21:53:52.354Z,20.93
2022-11-30T21:56:21.300Z,19.57
2022-11-30T21:58:49.330Z,21.50
2022-11-30T22:01:18.274Z,19.67
2022-11-30T22:03:46.228Z,20.50
2022-11-30T22:06:15.019Z,17.30
2022-11-30T22:08:42.856Z,20.90
2022-11-30T22:11:14.824Z,22.67
2022-11-30T22:13:42.817Z,21.77
2022-11-30T22:16:14.113Z,21.93
2022-11-30T22:18:42.040Z,22.83
2022-11-30T22:21:13.405Z,21.57
2022-11-30T22:23:42.585Z,21.17
2022-11-30T22:26:21.177Z,15.17
2022-11-30T22:28:53.431Z,19.47
2022-11-30T22:31:22.608Z,18.70
2022-11-30T22:33:50.260Z,18.60
2022-11-30T22:36:22.822Z,13.67
2022-11-30T22:39:02.883Z,18.30
2022-11-30T22:41:30.874Z,11.33
2022-11-30T22:43:58.339Z,18.33
2022-11-30T22:46:27.370Z,18.93
2022-11-30T22:48:55.066Z,18.57
2022-11-30T22:51:23.637Z,18.50
2022-11-30T22:53:51.540Z,15.13
2022-11-30T22:56:23.738Z,17.20
2022-11-30T22:58:51.828Z,20.87
2022-11-30T23:01:24.011Z,18.20
2022-11-30T23:03:52.250Z,19.10
2022-11-30T23:06:20.896Z,18.87
2022-11-30T23:08:49.036Z,20.77
2022-11-30T23:11:18.134Z,16.90
2022-11-30T23:13:45.664Z,20.37
2022-11-30T23:16:14.483Z,22.27
2022-11-30T23:18:43.151Z,22.30
2022-11-30T23:21:12.673Z,20.43
2022-11-30T23:23:40.394Z,21.57
2022-11-30T23:26:12.177Z,22.50
2022-11-30T23:28:40.155Z,21.67
2022-11-30T23:31:08.812Z,22.33
2022-11-30T23:33:36.477Z,20.17
2022-11-30T23:36:04.399Z,21.93
2022-11-30T23:38:32.056Z,22.27
2022-11-30T23:41:09.723Z,22.37
2022-11-30T23:43:37.867Z,20.17
2022-11-30T23:46:06.657Z,22.73
2022-11-30T23:48:34.472Z,20.63
2022-11-30T23:51:02.365Z,14.80
2022-11-30T23:53:29.839Z,19.97
2022-11-30T23:55:57.420Z,20.23
2022-11-30T23:58:24.935Z,18.43
